sensor_id;sensor_type;location;lat;lon;timestamp;P1;durP1;ratioP1;P2;durP2;ratioP2
23159;SDS011;11748;50.844;4.396;2023-05-07T00:02:22;8.57;;;3.75;;
23159;SDS011;11748;50.844;4.396;2023-05-07T00:04:48;9.13;;;3.47;;
23159;SDS011;11748;50.844;4.396;2023-05-07T00:07:14;8.10;;;3.47;;
23159;SDS011;11748;50.844;4.396;2023-05-07T00:09:40;8.07;;;3.58;;
23159;SDS011;11748;50.844;4.396;2023-05-07T00:12:06;9.88;;;4.05;;
23159;SDS011;11748;50.844;4.396;2023-05-07T00:14:32;9.38;;;3.80;;
23159;SDS011;11748;50.844;4.396;2023-05-07T00:16:58;12.80;;;4.15;;
23159;SDS011;11748;50.844;4.396;2023-05-07T00:19:23;10.35;;;4.30;;
23159;SDS011;11748;50.844;4.396;2023-05-07T00:21:49;6.93;;;3.70;;
23159;SDS011;11748;50.844;4.396;2023-05-07T00:24:15;9.15;;;3.58;;
23159;SDS011;11748;50.844;4.396;2023-05-07T00:26:41;6.72;;;3.60;;
23159;SDS011;11748;50.844;4.396;2023-05-07T00:29:07;10.48;;;3.60;;
23159;SDS011;11748;50.844;4.396;2023-05-07T00:31:33;9.02;;;3.47;;
23159;SDS011;11748;50.844;4.396;2023-05-07T00:33:58;8.45;;;3.53;;
23159;SDS011;11748;50.844;4.396;2023-05-07T00:36:24;9.90;;;3.65;;
23159;SDS011;11748;50.844;4.396;2023-05-07T00:38:51;8.32;;;3.13;;
23159;SDS011;11748;50.844;4.396;2023-05-07T00:41:17;7.63;;;3.42;;
23159;SDS011;11748;50.844;4.396;2023-05-07T00:43:43;9.43;;;3.10;;
23159;SDS011;11748;50.844;4.396;2023-05-07T00:46:09;8.02;;;3.60;;
23159;SDS011;11748;50.844;4.396;2023-05-07T00:48:35;6.75;;;2.90;;
23159;SDS011;11748;50.844;4.396;2023-05-07T00:51:01;6.57;;;3.05;;
23159;SDS011;11748;50.844;4.396;2023-05-07T00:53:26;8.05;;;3.00;;
23159;SDS011;11748;50.844;4.396;2023-05-07T00:55:52;8.35;;;3.20;;
23159;SDS011;11748;50.844;4.396;2023-05-07T00:58:19;10.50;;;3.42;;
23159;SDS011;11748;50.844;4.396;2023-05-07T01:00:46;5.55;;;2.83;;
23159;SDS011;11748;50.844;4.396;2023-05-07T01:03:11;6.35;;;2.97;;
23159;SDS011;11748;50.844;4.396;2023-05-07T01:05:37;10.68;;;3.15;;
23159;SDS011;11748;50.844;4.396;2023-05-07T01:08:03;10.07;;;3.38;;
23159;SDS011;11748;50.844;4.396;2023-05-07T01:10:30;8.65;;;3.17;;
23159;SDS011;11748;50.844;4.396;2023-05-07T01:12:57;8.88;;;3.58;;
23159;SDS011;11748;50.844;4.396;2023-05-07T01:15:23;4.43;;;2.75;;
23159;SDS011;11748;50.844;4.396;2023-05-07T01:17:49;8.10;;;3.58;;
23159;SDS011;11748;50.844;4.396;2023-05-07T01:20:15;11.25;;;3.63;;
23159;SDS011;11748;50.844;4.396;2023-05-07T01:22:43;7.72;;;2.90;;
23159;SDS011;11748;50.844;4.396;2023-05-07T01:25:09;11.70;;;3.10;;
23159;SDS011;11748;50.844;4.396;2023-05-07T01:27:35;7.82;;;3.28;;
23159;SDS011;11748;50.844;4.396;2023-05-07T01:30:02;8.63;;;3.25;;
23159;SDS011;11748;50.844;4.396;2023-05-07T01:32:31;7.55;;;3.63;;
23159;SDS011;11748;50.844;4.396;2023-05-07T01:35:03;7.80;;;3.38;;
23159;SDS011;11748;50.844;4.396;2023-05-07T01:37:32;6.60;;;3.35;;
23159;SDS011;11748;50.844;4.396;2023-05-07T01:39:58;10.38;;;3.65;;
23159;SDS011;11748;50.844;4.396;2023-05-07T01:42:26;8.20;;;3.60;;
23159;SDS011;11748;50.844;4.396;2023-05-07T01:44:51;12.05;;;3.90;;
23159;SDS011;11748;50.844;4.396;2023-05-07T01:47:17;11.48;;;3.95;;
23159;SDS011;11748;50.844;4.396;2023-05-07T01:49:44;11.20;;;3.85;;
23159;SDS011;11748;50.844;4.396;2023-05-07T01:52:10;12.25;;;3.70;;
23159;SDS011;11748;50.844;4.396;2023-05-07T01:54:37;7.30;;;3.60;;
23159;SDS011;11748;50.844;4.396;2023-05-07T01:57:03;10.63;;;3.35;;
23159;SDS011;11748;50.844;4.396;2023-05-07T01:59:29;14.38;;;4.25;;
23159;SDS011;11748;50.844;4.396;2023-05-07T02:01:55;9.63;;;3.50;;
23159;SDS011;11748;50.844;4.396;2023-05-07T02:04:21;8.38;;;3.88;;
23159;SDS011;11748;50.844;4.396;2023-05-07T02:06:47;12.10;;;3.85;;
23159;SDS011;11748;50.844;4.396;2023-05-07T02:09:13;9.20;;;3.33;;
23159;SDS011;11748;50.844;4.396;2023-05-07T02:11:39;7.75;;;3.60;;
23159;SDS011;11748;50.844;4.396;2023-05-07T02:14:05;6.53;;;3.17;;
23159;SDS011;11748;50.844;4.396;2023-05-07T02:16:31;10.80;;;3.88;;
23159;SDS011;11748;50.844;4.396;2023-05-07T02:18:57;11.20;;;3.38;;
23159;SDS011;11748;50.844;4.396;2023-05-07T02:21:23;6.80;;;3.72;;
23159;SDS011;11748;50.844;4.396;2023-05-07T02:23:50;7.30;;;3.35;;
23159;SDS011;11748;50.844;4.396;2023-05-07T02:26:15;9.25;;;3.40;;
23159;SDS011;11748;50.844;4.396;2023-05-07T02:28:41;11.05;;;3.53;;
23159;SDS011;11748;50.844;4.396;2023-05-07T02:31:07;9.98;;;3.80;;
23159;SDS011;11748;50.844;4.396;2023-05-07T02:33:33;11.07;;;3.72;;
23159;SDS011;11748;50.844;4.396;2023-05-07T02:36:07;8.40;;;3.20;;
23159;SDS011;11748;50.844;4.396;2023-05-07T02:38:33;9.00;;;3.63;;
23159;SDS011;11748;50.844;4.396;2023-05-07T02:40:59;11.15;;;3.60;;
23159;SDS011;11748;50.844;4.396;2023-05-07T02:43:25;6.90;;;3.50;;
23159;SDS011;11748;50.844;4.396;2023-05-07T02:46:01;8.52;;;3.40;;
23159;SDS011;11748;50.844;4.396;2023-05-07T02:48:27;8.63;;;3.17;;
23159;SDS011;11748;50.844;4.396;2023-05-07T02:50:53;8.90;;;3.50;;
23159;SDS011;11748;50.844;4.396;2023-05-07T02:53:19;8.73;;;3.50;;
23159;SDS011;11748;50.844;4.396;2023-05-07T02:55:45;7.88;;;3.03;;
23159;SDS011;11748;50.844;4.396;2023-05-07T02:58:10;7.78;;;3.30;;
23159;SDS011;11748;50.844;4.396;2023-05-07T03:00:36;8.30;;;3.13;;
23159;SDS011;11748;50.844;4.396;2023-05-07T03:03:02;10.23;;;3.40;;
23159;SDS011;11748;50.844;4.396;2023-05-07T03:05:28;7.93;;;3.50;;
23159;SDS011;11748;50.844;4.396;2023-05-07T03:07:53;8.07;;;3.70;;
23159;SDS011;11748;50.844;4.396;2023-05-07T03:10:19;12.27;;;3.47;;
23159;SDS011;11748;50.844;4.396;2023-05-07T03:12:45;6.30;;;3.67;;
23159;SDS011;11748;50.844;4.396;2023-05-07T03:15:11;8.27;;;3.33;;
23159;SDS011;11748;50.844;4.396;2023-05-07T03:17:37;10.07;;;3.30;;
23159;SDS011;11748;50.844;4.396;2023-05-07T03:20:04;12.27;;;3.60;;
23159;SDS011;11748;50.844;4.396;2023-05-07T03:22:30;7.57;;;3.38;;
23159;SDS011;11748;50.844;4.396;2023-05-07T03:24:56;8.38;;;3.53;;
23159;SDS011;11748;50.844;4.396;2023-05-07T03:27:21;10.82;;;3.55;;
23159;SDS011;11748;50.844;4.396;2023-05-07T03:29:47;9.90;;;3.60;;
23159;SDS011;11748;50.844;4.396;2023-05-07T03:32:13;9.43;;;3.40;;
23159;SDS011;11748;50.844;4.396;2023-05-07T03:34:39;8.80;;;3.20;;
23159;SDS011;11748;50.844;4.396;2023-05-07T03:37:05;10.35;;;3.63;;
23159;SDS011;11748;50.844;4.396;2023-05-07T03:39:31;7.57;;;2.97;;
23159;SDS011;11748;50.844;4.396;2023-05-07T03:41:57;10.73;;;3.38;;
23159;SDS011;11748;50.844;4.396;2023-05-07T03:44:23;9.65;;;3.55;;
23159;SDS011;11748;50.844;4.396;2023-05-07T03:46:49;9.32;;;3.55;;
23159;SDS011;11748;50.844;4.396;2023-05-07T03:49:14;9.93;;;3.78;;
23159;SDS011;11748;50.844;4.396;2023-05-07T03:51:40;11.43;;;3.55;;
23159;SDS011;11748;50.844;4.396;2023-05-07T03:54:06;8.15;;;3.30;;
23159;SDS011;11748;50.844;4.396;2023-05-07T03:56:33;5.80;;;3.05;;
23159;SDS011;11748;50.844;4.396;2023-05-07T03:59:00;8.27;;;3.45;;
23159;SDS011;11748;50.844;4.396;2023-05-07T04:01:26;8.75;;;3.08;;
23159;SDS011;11748;50.844;4.396;2023-05-07T04:03:52;8.52;;;3.38;;
23159;SDS011;11748;50.844;4.396;2023-05-07T04:06:18;9.43;;;3.75;;
23159;SDS011;11748;50.844;4.396;2023-05-07T04:08:43;11.13;;;3.97;;
23159;SDS011;11748;50.844;4.396;2023-05-07T04:11:09;8.27;;;3.47;;
23159;SDS011;11748;50.844;4.396;2023-05-07T04:13:35;9.68;;;4.00;;
23159;SDS011;11748;50.844;4.396;2023-05-07T04:16:01;10.45;;;3.35;;
23159;SDS011;11748;50.844;4.396;2023-05-07T04:18:28;6.88;;;3.40;;
23159;SDS011;11748;50.844;4.396;2023-05-07T04:20:54;9.98;;;3.58;;
23159;SDS011;11748;50.844;4.396;2023-05-07T04:23:20;9.30;;;3.33;;
23159;SDS011;11748;50.844;4.396;2023-05-07T04:25:46;8.27;;;3.35;;
23159;SDS011;11748;50.844;4.396;2023-05-07T04:28:12;6.07;;;3.22;;
23159;SDS011;11748;50.844;4.396;2023-05-07T04:30:38;9.80;;;3.47;;
23159;SDS011;11748;50.844;4.396;2023-05-07T04:33:04;9.88;;;3.50;;
23159;SDS011;11748;50.844;4.396;2023-05-07T04:35:31;13.48;;;3.47;;
23159;SDS011;11748;50.844;4.396;2023-05-07T04:37:57;12.85;;;3.40;;
23159;SDS011;11748;50.844;4.396;2023-05-07T04:40:23;6.43;;;3.03;;
23159;SDS011;11748;50.844;4.396;2023-05-07T04:42:49;7.90;;;3.45;;
23159;SDS011;11748;50.844;4.396;2023-05-07T04:45:14;5.50;;;3.10;;
23159;SDS011;11748;50.844;4.396;2023-05-07T04:47:40;9.52;;;3.25;;
23159;SDS011;11748;50.844;4.396;2023-05-07T04:50:06;8.23;;;3.08;;
23159;SDS011;11748;50.844;4.396;2023-05-07T04:52:33;10.75;;;3.75;;
23159;SDS011;11748;50.844;4.396;2023-05-07T04:54:59;7.50;;;3.33;;
23159;SDS011;11748;50.844;4.396;2023-05-07T04:57:25;7.85;;;2.90;;
23159;SDS011;11748;50.844;4.396;2023-05-07T04:59:52;8.60;;;3.25;;
23159;SDS011;11748;50.844;4.396;2023-05-07T05:02:18;11.93;;;3.92;;
23159;SDS011;11748;50.844;4.396;2023-05-07T05:04:43;6.82;;;2.88;;
23159;SDS011;11748;50.844;4.396;2023-05-07T05:07:09;12.82;;;6.20;;
23159;SDS011;11748;50.844;4.396;2023-05-07T05:09:35;10.13;;;3.75;;
23159;SDS011;11748;50.844;4.396;2023-05-07T05:12:01;7.68;;;3.22;;
23159;SDS011;11748;50.844;4.396;2023-05-07T05:14:26;8.70;;;3.30;;
23159;SDS011;11748;50.844;4.396;2023-05-07T05:16:52;10.00;;;3.72;;
23159;SDS011;11748;50.844;4.396;2023-05-07T05:19:18;8.52;;;3.28;;
23159;SDS011;11748;50.844;4.396;2023-05-07T05:21:43;9.65;;;6.18;;
23159;SDS011;11748;50.844;4.396;2023-05-07T05:24:09;8.95;;;3.80;;
23159;SDS011;11748;50.844;4.396;2023-05-07T05:26:35;8.30;;;3.13;;
23159;SDS011;11748;50.844;4.396;2023-05-07T05:29:01;8.10;;;2.92;;
23159;SDS011;11748;50.844;4.396;2023-05-07T05:31:26;8.15;;;2.60;;
23159;SDS011;11748;50.844;4.396;2023-05-07T05:33:52;9.85;;;3.05;;
23159;SDS011;11748;50.844;4.396;2023-05-07T05:36:18;8.75;;;2.63;;
23159;SDS011;11748;50.844;4.396;2023-05-07T05:38:44;7.82;;;3.08;;
23159;SDS011;11748;50.844;4.396;2023-05-07T05:41:09;7.82;;;2.92;;
23159;SDS011;11748;50.844;4.396;2023-05-07T05:43:35;10.57;;;2.80;;
23159;SDS011;11748;50.844;4.396;2023-05-07T05:46:01;5.70;;;2.42;;
23159;SDS011;11748;50.844;4.396;2023-05-07T05:48:28;10.15;;;2.38;;
23159;SDS011;11748;50.844;4.396;2023-05-07T05:50:54;7.55;;;2.72;;
23159;SDS011;11748;50.844;4.396;2023-05-07T05:53:20;6.05;;;2.80;;
23159;SDS011;11748;50.844;4.396;2023-05-07T05:55:45;12.32;;;3.08;;
23159;SDS011;11748;50.844;4.396;2023-05-07T05:58:11;10.30;;;2.97;;
23159;SDS011;11748;50.844;4.396;2023-05-07T06:00:37;8.02;;;3.03;;
23159;SDS011;11748;50.844;4.396;2023-05-07T06:03:03;8.63;;;3.25;;
23159;SDS011;11748;50.844;4.396;2023-05-07T06:05:29;10.32;;;3.15;;
23159;SDS011;11748;50.844;4.396;2023-05-07T06:07:54;11.95;;;4.03;;
23159;SDS011;11748;50.844;4.396;2023-05-07T06:10:21;11.63;;;3.25;;
23159;SDS011;11748;50.844;4.396;2023-05-07T06:12:47;9.82;;;3.60;;
23159;SDS011;11748;50.844;4.396;2023-05-07T06:15:13;9.93;;;3.95;;
23159;SDS011;11748;50.844;4.396;2023-05-07T06:17:39;11.00;;;3.92;;
23159;SDS011;11748;50.844;4.396;2023-05-07T06:20:05;12.48;;;4.40;;
23159;SDS011;11748;50.844;4.396;2023-05-07T06:22:31;9.93;;;4.15;;
23159;SDS011;11748;50.844;4.396;2023-05-07T06:24:57;10.68;;;3.78;;
23159;SDS011;11748;50.844;4.396;2023-05-07T06:27:22;10.23;;;3.47;;
23159;SDS011;11748;50.844;4.396;2023-05-07T06:29:48;6.82;;;3.33;;
23159;SDS011;11748;50.844;4.396;2023-05-07T06:32:14;9.45;;;3.72;;
23159;SDS011;11748;50.844;4.396;2023-05-07T06:34:42;10.77;;;3.83;;
23159;SDS011;11748;50.844;4.396;2023-05-07T06:37:07;8.95;;;3.20;;
23159;SDS011;11748;50.844;4.396;2023-05-07T06:39:33;8.88;;;3.40;;
23159;SDS011;11748;50.844;4.396;2023-05-07T06:41:59;12.90;;;4.15;;
23159;SDS011;11748;50.844;4.396;2023-05-07T06:44:26;9.80;;;3.47;;
23159;SDS011;11748;50.844;4.396;2023-05-07T06:46:52;9.35;;;3.20;;
23159;SDS011;11748;50.844;4.396;2023-05-07T06:49:18;12.25;;;4.03;;
23159;SDS011;11748;50.844;4.396;2023-05-07T06:51:44;6.03;;;2.75;;
23159;SDS011;11748;50.844;4.396;2023-05-07T06:54:09;4.63;;;2.92;;
23159;SDS011;11748;50.844;4.396;2023-05-07T06:56:35;8.38;;;3.38;;
23159;SDS011;11748;50.844;4.396;2023-05-07T06:59:01;6.43;;;2.33;;
23159;SDS011;11748;50.844;4.396;2023-05-07T07:01:28;8.52;;;2.95;;
23159;SDS011;11748;50.844;4.396;2023-05-07T07:03:54;8.85;;;3.47;;
23159;SDS011;11748;50.844;4.396;2023-05-07T07:06:19;5.72;;;2.72;;
23159;SDS011;11748;50.844;4.396;2023-05-07T07:08:45;6.43;;;2.60;;
23159;SDS011;11748;50.844;4.396;2023-05-07T07:11:11;7.40;;;3.33;;
23159;SDS011;11748;50.844;4.396;2023-05-07T07:13:37;3.83;;;2.38;;
23159;SDS011;11748;50.844;4.396;2023-05-07T07:16:03;6.07;;;3.10;;
23159;SDS011;11748;50.844;4.396;2023-05-07T07:18:29;7.32;;;2.90;;
23159;SDS011;11748;50.844;4.396;2023-05-07T07:20:55;6.68;;;2.90;;
23159;SDS011;11748;50.844;4.396;2023-05-07T07:23:20;6.10;;;2.95;;
23159;SDS011;11748;50.844;4.396;2023-05-07T07:25:46;5.05;;;2.67;;
23159;SDS011;11748;50.844;4.396;2023-05-07T07:28:12;8.13;;;3.58;;
23159;SDS011;11748;50.844;4.396;2023-05-07T07:30:38;5.53;;;3.17;;
23159;SDS011;11748;50.844;4.396;2023-05-07T07:33:04;7.00;;;3.20;;
23159;SDS011;11748;50.844;4.396;2023-05-07T07:35:30;7.82;;;3.50;;
23159;SDS011;11748;50.844;4.396;2023-05-07T07:37:59;4.22;;;2.88;;
23159;SDS011;11748;50.844;4.396;2023-05-07T07:40:25;9.38;;;3.28;;
23159;SDS011;11748;50.844;4.396;2023-05-07T07:42:51;7.97;;;3.38;;
23159;SDS011;11748;50.844;4.396;2023-05-07T07:45:18;5.97;;;3.40;;
23159;SDS011;11748;50.844;4.396;2023-05-07T07:47:44;7.97;;;3.60;;
23159;SDS011;11748;50.844;4.396;2023-05-07T07:50:10;13.98;;;4.22;;
23159;SDS011;11748;50.844;4.396;2023-05-07T07:52:36;10.00;;;3.90;;
23159;SDS011;11748;50.844;4.396;2023-05-07T07:55:02;6.13;;;3.67;;
23159;SDS011;11748;50.844;4.396;2023-05-07T07:57:28;6.55;;;3.28;;
23159;SDS011;11748;50.844;4.396;2023-05-07T07:59:54;7.03;;;2.88;;
23159;SDS011;11748;50.844;4.396;2023-05-07T08:02:21;8.43;;;3.50;;
23159;SDS011;11748;50.844;4.396;2023-05-07T08:04:47;7.45;;;3.35;;
23159;SDS011;11748;50.844;4.396;2023-05-07T08:07:13;6.35;;;3.10;;
23159;SDS011;11748;50.844;4.396;2023-05-07T08:09:39;6.50;;;3.10;;
23159;SDS011;11748;50.844;4.396;2023-05-07T08:12:06;5.53;;;2.80;;
23159;SDS011;11748;50.844;4.396;2023-05-07T08:14:32;7.35;;;3.47;;
23159;SDS011;11748;50.844;4.396;2023-05-07T08:16:58;4.30;;;2.83;;
23159;SDS011;11748;50.844;4.396;2023-05-07T08:19:24;7.90;;;3.10;;
23159;SDS011;11748;50.844;4.396;2023-05-07T08:21:49;10.35;;;3.50;;
23159;SDS011;11748;50.844;4.396;2023-05-07T08:24:15;5.28;;;3.13;;
23159;SDS011;11748;50.844;4.396;2023-05-07T08:26:42;7.50;;;3.70;;
23159;SDS011;11748;50.844;4.396;2023-05-07T08:29:09;5.07;;;3.05;;
23159;SDS011;11748;50.844;4.396;2023-05-07T08:31:35;6.50;;;3.60;;
23159;SDS011;11748;50.844;4.396;2023-05-07T08:34:01;9.25;;;3.88;;
23159;SDS011;11748;50.844;4.396;2023-05-07T08:36:27;10.30;;;3.90;;
23159;SDS011;11748;50.844;4.396;2023-05-07T08:38:53;8.15;;;3.58;;
23159;SDS011;11748;50.844;4.396;2023-05-07T08:41:20;8.70;;;3.90;;
23159;SDS011;11748;50.844;4.396;2023-05-07T08:43:49;7.90;;;3.35;;
23159;SDS011;11748;50.844;4.396;2023-05-07T08:46:20;5.75;;;4.13;;
23159;SDS011;11748;50.844;4.396;2023-05-07T08:48:49;8.25;;;4.35;;
23159;SDS011;11748;50.844;4.396;2023-05-07T08:51:17;6.90;;;3.92;;
23159;SDS011;11748;50.844;4.396;2023-05-07T08:53:46;8.88;;;4.38;;
23159;SDS011;11748;50.844;4.396;2023-05-07T08:56:15;8.88;;;4.97;;
23159;SDS011;11748;50.844;4.396;2023-05-07T08:58:42;6.22;;;4.35;;
23159;SDS011;11748;50.844;4.396;2023-05-07T09:01:10;7.05;;;4.40;;
23159;SDS011;11748;50.844;4.396;2023-05-07T09:03:40;7.25;;;3.85;;
23159;SDS011;11748;50.844;4.396;2023-05-07T09:06:09;7.53;;;3.85;;
23159;SDS011;11748;50.844;4.396;2023-05-07T09:08:35;8.63;;;4.30;;
23159;SDS011;11748;50.844;4.396;2023-05-07T09:11:01;6.28;;;3.00;;
23159;SDS011;11748;50.844;4.396;2023-05-07T09:13:27;6.75;;;3.20;;
23159;SDS011;11748;50.844;4.396;2023-05-07T09:15:54;5.93;;;3.20;;
23159;SDS011;11748;50.844;4.396;2023-05-07T09:18:21;5.55;;;3.50;;
23159;SDS011;11748;50.844;4.396;2023-05-07T09:20:48;9.57;;;3.60;;
23159;SDS011;11748;50.844;4.396;2023-05-07T09:23:14;6.93;;;4.05;;
23159;SDS011;11748;50.844;4.396;2023-05-07T09:25:40;6.55;;;3.55;;
23159;SDS011;11748;50.844;4.396;2023-05-07T09:28:06;8.02;;;3.83;;
23159;SDS011;11748;50.844;4.396;2023-05-07T09:30:33;8.05;;;3.50;;
23159;SDS011;11748;50.844;4.396;2023-05-07T09:33:00;6.32;;;3.67;;
23159;SDS011;11748;50.844;4.396;2023-05-07T09:35:27;4.80;;;2.75;;
23159;SDS011;11748;50.844;4.396;2023-05-07T09:37:53;7.35;;;3.65;;
23159;SDS011;11748;50.844;4.396;2023-05-07T09:40:24;7.55;;;3.25;;
23159;SDS011;11748;50.844;4.396;2023-05-07T09:42:51;7.53;;;3.25;;
23159;SDS011;11748;50.844;4.396;2023-05-07T09:45:26;6.28;;;4.35;;
23159;SDS011;11748;50.844;4.396;2023-05-07T09:47:54;10.57;;;6.35;;
23159;SDS011;11748;50.844;4.396;2023-05-07T09:50:24;6.18;;;3.40;;
23159;SDS011;11748;50.844;4.396;2023-05-07T09:52:53;8.13;;;3.58;;
23159;SDS011;11748;50.844;4.396;2023-05-07T09:55:21;7.70;;;3.22;;
23159;SDS011;11748;50.844;4.396;2023-05-07T09:57:50;6.15;;;3.15;;
23159;SDS011;11748;50.844;4.396;2023-05-07T10:00:20;4.90;;;2.90;;
23159;SDS011;11748;50.844;4.396;2023-05-07T10:02:48;6.93;;;2.80;;
23159;SDS011;11748;50.844;4.396;2023-05-07T10:05:20;6.22;;;2.80;;
23159;SDS011;11748;50.844;4.396;2023-05-07T10:07:47;4.43;;;2.55;;
23159;SDS011;11748;50.844;4.396;2023-05-07T10:10:14;4.65;;;2.10;;
23159;SDS011;11748;50.844;4.396;2023-05-07T10:12:41;7.47;;;2.33;;
23159;SDS011;11748;50.844;4.396;2023-05-07T10:15:10;4.90;;;2.17;;
23159;SDS011;11748;50.844;4.396;2023-05-07T10:17:37;6.75;;;2.90;;
23159;SDS011;11748;50.844;4.396;2023-05-07T10:20:07;5.95;;;2.30;;
23159;SDS011;11748;50.844;4.396;2023-05-07T10:22:47;4.65;;;2.55;;
23159;SDS011;11748;50.844;4.396;2023-05-07T10:25:18;5.88;;;3.47;;
23159;SDS011;11748;50.844;4.396;2023-05-07T10:27:51;4.38;;;2.80;;
23159;SDS011;11748;50.844;4.396;2023-05-07T10:30:25;7.25;;;3.10;;
23159;SDS011;11748;50.844;4.396;2023-05-07T10:33:01;6.63;;;3.75;;
23159;SDS011;11748;50.844;4.396;2023-05-07T10:35:41;5.55;;;2.78;;
23159;SDS011;11748;50.844;4.396;2023-05-07T10:38:09;5.60;;;3.80;;
23159;SDS011;11748;50.844;4.396;2023-05-07T10:40:35;7.30;;;3.10;;
23159;SDS011;11748;50.844;4.396;2023-05-07T10:43:02;5.90;;;3.03;;
23159;SDS011;11748;50.844;4.396;2023-05-07T10:45:32;6.45;;;3.63;;
23159;SDS011;11748;50.844;4.396;2023-05-07T10:50:35;4.82;;;2.90;;
23159;SDS011;11748;50.844;4.396;2023-05-07T10:58:44;5.60;;;2.53;;
23159;SDS011;11748;50.844;4.396;2023-05-07T11:01:11;4.85;;;2.13;;
23159;SDS011;11748;50.844;4.396;2023-05-07T11:04:12;3.55;;;1.92;;
23159;SDS011;11748;50.844;4.396;2023-05-07T11:06:40;5.30;;;1.77;;
23159;SDS011;11748;50.844;4.396;2023-05-07T11:09:06;3.83;;;2.20;;
23159;SDS011;11748;50.844;4.396;2023-05-07T11:11:48;5.78;;;3.22;;
23159;SDS011;11748;50.844;4.396;2023-05-07T11:17:06;2.65;;;1.80;;
23159;SDS011;11748;50.844;4.396;2023-05-07T11:25:04;5.10;;;1.95;;
23159;SDS011;11748;50.844;4.396;2023-05-07T11:27:33;3.03;;;1.70;;
23159;SDS011;11748;50.844;4.396;2023-05-07T11:29:59;2.67;;;1.38;;
23159;SDS011;11748;50.844;4.396;2023-05-07T11:32:29;4.13;;;1.60;;
23159;SDS011;11748;50.844;4.396;2023-05-07T11:34:56;2.17;;;1.65;;
23159;SDS011;11748;50.844;4.396;2023-05-07T11:37:23;3.50;;;1.80;;
23159;SDS011;11748;50.844;4.396;2023-05-07T11:39:50;3.45;;;2.10;;
23159;SDS011;11748;50.844;4.396;2023-05-07T11:42:27;2.70;;;1.73;;
23159;SDS011;11748;50.844;4.396;2023-05-07T11:44:57;3.75;;;2.00;;
23159;SDS011;11748;50.844;4.396;2023-05-07T11:47:23;4.85;;;2.20;;
23159;SDS011;11748;50.844;4.396;2023-05-07T11:49:51;5.22;;;1.60;;
23159;SDS011;11748;50.844;4.396;2023-05-07T11:52:19;4.38;;;2.00;;
23159;SDS011;11748;50.844;4.396;2023-05-07T11:54:52;3.35;;;1.90;;
23159;SDS011;11748;50.844;4.396;2023-05-07T11:57:20;4.35;;;1.80;;
23159;SDS011;11748;50.844;4.396;2023-05-07T11:59:46;6.68;;;2.00;;
23159;SDS011;11748;50.844;4.396;2023-05-07T12:02:13;2.78;;;1.60;;
23159;SDS011;11748;50.844;4.396;2023-05-07T12:04:40;6.28;;;1.73;;
23159;SDS011;11748;50.844;4.396;2023-05-07T12:07:16;3.03;;;1.13;;
23159;SDS011;11748;50.844;4.396;2023-05-07T12:09:43;2.60;;;1.25;;
23159;SDS011;11748;50.844;4.396;2023-05-07T12:12:10;3.67;;;1.40;;
23159;SDS011;11748;50.844;4.396;2023-05-07T12:14:40;2.10;;;1.23;;
23159;SDS011;11748;50.844;4.396;2023-05-07T12:17:10;5.68;;;3.20;;
23159;SDS011;11748;50.844;4.396;2023-05-07T12:19:39;3.20;;;2.10;;
23159;SDS011;11748;50.844;4.396;2023-05-07T12:22:07;3.20;;;1.35;;
23159;SDS011;11748;50.844;4.396;2023-05-07T12:24:48;2.85;;;1.23;;
23159;SDS011;11748;50.844;4.396;2023-05-07T12:27:21;2.63;;;1.65;;
23159;SDS011;11748;50.844;4.396;2023-05-07T12:29:47;2.47;;;1.40;;
23159;SDS011;11748;50.844;4.396;2023-05-07T12:32:15;2.80;;;1.50;;
23159;SDS011;11748;50.844;4.396;2023-05-07T12:34:45;4.60;;;2.20;;
23159;SDS011;11748;50.844;4.396;2023-05-07T12:37:11;4.15;;;1.65;;
23159;SDS011;11748;50.844;4.396;2023-05-07T12:39:49;3.20;;;1.80;;
23159;SDS011;11748;50.844;4.396;2023-05-07T12:42:36;2.60;;;1.70;;
23159;SDS011;11748;50.844;4.396;2023-05-07T12:47:47;2.80;;;1.52;;
23159;SDS011;11748;50.844;4.396;2023-05-07T12:50:13;2.38;;;1.70;;
23159;SDS011;11748;50.844;4.396;2023-05-07T12:52:39;2.97;;;2.15;;
23159;SDS011;11748;50.844;4.396;2023-05-07T12:55:05;4.35;;;2.47;;
23159;SDS011;11748;50.844;4.396;2023-05-07T12:57:42;4.65;;;3.17;;
23159;SDS011;11748;50.844;4.396;2023-05-07T13:00:13;4.03;;;3.50;;
23159;SDS011;11748;50.844;4.396;2023-05-07T13:02:40;5.18;;;4.07;;
23159;SDS011;11748;50.844;4.396;2023-05-07T13:05:09;5.53;;;4.10;;
23159;SDS011;11748;50.844;4.396;2023-05-07T13:07:35;4.30;;;3.80;;
23159;SDS011;11748;50.844;4.396;2023-05-07T13:10:02;4.47;;;3.67;;
23159;SDS011;11748;50.844;4.396;2023-05-07T13:12:28;4.40;;;4.00;;
23159;SDS011;11748;50.844;4.396;2023-05-07T13:14:54;4.45;;;4.05;;
23159;SDS011;11748;50.844;4.396;2023-05-07T13:17:20;5.80;;;4.45;;
23159;SDS011;11748;50.844;4.396;2023-05-07T13:19:46;4.85;;;4.35;;
23159;SDS011;11748;50.844;4.396;2023-05-07T13:22:11;7.65;;;4.70;;
23159;SDS011;11748;50.844;4.396;2023-05-07T13:24:37;8.27;;;4.95;;
23159;SDS011;11748;50.844;4.396;2023-05-07T13:27:03;6.57;;;5.38;;
23159;SDS011;11748;50.844;4.396;2023-05-07T13:29:29;6.65;;;5.95;;
23159;SDS011;11748;50.844;4.396;2023-05-07T13:31:58;6.95;;;6.25;;
23159;SDS011;11748;50.844;4.396;2023-05-07T13:34:24;7.22;;;5.70;;
23159;SDS011;11748;50.844;4.396;2023-05-07T13:36:50;6.68;;;5.97;;
23159;SDS011;11748;50.844;4.396;2023-05-07T13:39:16;8.10;;;5.40;;
23159;SDS011;11748;50.844;4.396;2023-05-07T13:41:42;6.10;;;5.50;;
23159;SDS011;11748;50.844;4.396;2023-05-07T13:44:08;7.47;;;6.07;;
23159;SDS011;11748;50.844;4.396;2023-05-07T13:46:33;6.00;;;5.45;;
23159;SDS011;11748;50.844;4.396;2023-05-07T13:48:59;5.88;;;5.15;;
23159;SDS011;11748;50.844;4.396;2023-05-07T13:51:25;6.20;;;5.60;;
23159;SDS011;11748;50.844;4.396;2023-05-07T13:53:51;6.22;;;5.63;;
23159;SDS011;11748;50.844;4.396;2023-05-07T13:56:17;6.63;;;6.00;;
23159;SDS011;11748;50.844;4.396;2023-05-07T13:58:43;7.35;;;6.60;;
23159;SDS011;11748;50.844;4.396;2023-05-07T14:01:09;6.70;;;6.05;;
23159;SDS011;11748;50.844;4.396;2023-05-07T14:03:35;7.15;;;6.07;;
23159;SDS011;11748;50.844;4.396;2023-05-07T14:06:03;7.25;;;6.55;;
23159;SDS011;11748;50.844;4.396;2023-05-07T14:08:29;8.20;;;6.88;;
23159;SDS011;11748;50.844;4.396;2023-05-07T14:10:55;6.75;;;6.15;;
23159;SDS011;11748;50.844;4.396;2023-05-07T14:13:21;6.97;;;6.30;;
23159;SDS011;11748;50.844;4.396;2023-05-07T14:15:47;7.57;;;6.88;;
23159;SDS011;11748;50.844;4.396;2023-05-07T14:18:14;8.40;;;7.60;;
23159;SDS011;11748;50.844;4.396;2023-05-07T14:20:40;8.77;;;7.88;;
23159;SDS011;11748;50.844;4.396;2023-05-07T14:23:08;8.90;;;8.00;;
23159;SDS011;11748;50.844;4.396;2023-05-07T14:25:34;9.02;;;7.90;;
23159;SDS011;11748;50.844;4.396;2023-05-07T14:28:00;9.20;;;8.27;;
23159;SDS011;11748;50.844;4.396;2023-05-07T14:30:26;8.70;;;7.78;;
23159;SDS011;11748;50.844;4.396;2023-05-07T14:32:52;8.88;;;7.95;;
23159;SDS011;11748;50.844;4.396;2023-05-07T14:35:18;8.73;;;7.70;;
23159;SDS011;11748;50.844;4.396;2023-05-07T14:37:43;8.55;;;7.53;;
23159;SDS011;11748;50.844;4.396;2023-05-07T14:40:09;9.00;;;8.20;;
23159;SDS011;11748;50.844;4.396;2023-05-07T14:42:35;10.02;;;8.57;;
23159;SDS011;11748;50.844;4.396;2023-05-07T14:45:01;8.20;;;7.40;;
23159;SDS011;11748;50.844;4.396;2023-05-07T14:47:27;8.15;;;6.95;;
23159;SDS011;11748;50.844;4.396;2023-05-07T14:49:53;7.35;;;6.07;;
23159;SDS011;11748;50.844;4.396;2023-05-07T14:52:19;8.13;;;7.05;;
23159;SDS011;11748;50.844;4.396;2023-05-07T14:54:45;6.70;;;6.07;;
23159;SDS011;11748;50.844;4.396;2023-05-07T14:57:13;8.50;;;6.93;;
23159;SDS011;11748;50.844;4.396;2023-05-07T14:59:41;7.97;;;7.00;;
23159;SDS011;11748;50.844;4.396;2023-05-07T15:02:07;9.70;;;6.55;;
23159;SDS011;11748;50.844;4.396;2023-05-07T15:04:34;9.10;;;7.30;;